Nearby METAR Reports

 

LBGO - Gorna Orechovist, Bulgaria
Distance from station: NE 57km
Updated: 20/08/2019 17:00
Clear
Clear
 Wind from ESE
Wind: ESE 13 km/h
Temperature: 31°C
Dew Point: 12°C
Humidity: 31%
Barometer: 1019 hPa
Clouds: Clear
Visibility: 10 km
2019/08/20 14:00 LBGO 201400Z AUTO 11007KT 080V190 9999 NCD 31/12 Q1019 NOSIG